Terminal Aerodrome Forecast
Issued by NWS Sterling, VA

Current Version | Previous Version | Text Only | Print | Product List | Glossary Off
Versions: 1 2 3 4 5 6 7 8 9 10 11 12 13 14 15 16 17 18 19 20

000
FTUS41 KLWX 251501 AAD
TAFMRB
TAF AMD
KMRB 251501Z 2515/2612 34005KT P6SM OVC008
     FM251700 33004KT P6SM OVC008
     FM251900 32005KT P6SM BKN010
     FM252100 32007KT P6SM BKN020
     FM252200 32007KT P6SM BKN035
     FM260200 31009KT P6SM SCT060=

USA.gov is the U.S. government's official web portal to all federal, state and local government web resources and services.